Time;durP1;ratioP1;P1;durP2;ratioP2;P2;SDS_P1;SDS_P2;PMS_P1;PMS_P2;Temp;Humidity;BMP_temperature;BMP_pressure;BME280_temperature;BME280_humidity;BME280_pressure;Samples;Min_cycle;Max_cycle;Signal;HPM_P1;HPM_P2
2023/03/15 00:00:09;;;;;;;7.65;2.95;;;3.10;99.90;;;;;;5087177;28;20165;-70
2023/03/15 00:02:35;;;;;;;9.35;2.78;;;3.10;99.90;;;;;;5065115;28;20043;-70
2023/03/15 00:05:01;;;;;;;7.70;2.70;;;3.10;99.90;;;;;;5066875;28;20377;-70
2023/03/15 00:07:27;;;;;;;11.45;2.90;;;3.10;99.90;;;;;;5086193;28;20047;-70
2023/03/15 00:09:53;;;;;;;8.88;2.63;;;3.10;99.90;;;;;;5086495;28;20048;-71
2023/03/15 00:12:18;;;;;;;9.70;2.80;;;3.10;99.90;;;;;;5063687;28;20044;-71
2023/03/15 00:14:44;;;;;;;8.98;2.78;;;3.10;99.90;;;;;;5082663;28;20372;-70
2023/03/15 00:17:10;;;;;;;9.48;2.63;;;2.90;99.90;;;;;;5088571;28;20032;-70
2023/03/15 00:19:36;;;;;;;9.43;2.67;;;2.90;99.90;;;;;;5052334;28;20046;-70
2023/03/15 00:22:01;;;;;;;13.50;2.75;;;2.90;99.90;;;;;;5081807;28;20043;-70
2023/03/15 00:24:27;;;;;;;10.73;2.88;;;2.80;99.90;;;;;;5051070;28;20056;-70
2023/03/15 00:26:53;;;;;;;13.05;2.70;;;2.60;99.90;;;;;;5083668;28;20032;-70
2023/03/15 00:29:19;;;;;;;8.27;2.60;;;2.60;99.90;;;;;;5079762;28;20028;-70
2023/03/15 00:31:44;;;;;;;8.98;3.15;;;2.50;99.90;;;;;;5064375;28;20170;-71
2023/03/15 00:34:12;;;;;;;6.15;2.70;;;2.40;99.90;;;;;;5086081;28;20071;-70
2023/03/15 00:36:42;;;;;;;13.70;2.88;;;2.50;99.90;;;;;;5066930;28;20044;-71
2023/03/15 00:39:08;;;;;;;9.32;2.53;;;2.40;99.90;;;;;;5065235;28;20682;-70
2023/03/15 00:41:33;;;;;;;6.25;2.35;;;2.40;99.90;;;;;;5087663;28;20135;-70
2023/03/15 00:43:59;;;;;;;8.88;2.50;;;2.40;99.90;;;;;;5066390;28;20651;-71
2023/03/15 00:46:25;;;;;;;10.05;2.20;;;2.40;99.90;;;;;;5069680;28;20043;-71
2023/03/15 00:48:51;;;;;;;7.00;2.10;;;2.40;99.90;;;;;;5067206;28;20063;-70
2023/03/15 00:51:20;;;;;;;9.77;2.42;;;2.40;99.90;;;;;;5080604;28;20044;-70
2023/03/15 00:53:47;;;;;;;9.38;3.03;;;2.30;99.90;;;;;;5083017;28;20028;-71
2023/03/15 00:56:16;;;;;;;10.13;2.35;;;2.30;99.90;;;;;;5069451;28;20534;-70
2023/03/15 00:58:41;;;;;;;8.20;2.33;;;2.30;99.90;;;;;;5067312;28;20048;-70
2023/03/15 01:01:19;;;;;;;7.10;1.92;;;2.30;99.90;;;;;;5078814;28;20040;-71
2023/03/15 01:03:46;;;;;;;11.43;2.40;;;2.20;99.90;;;;;;5073625;28;20047;-70
2023/03/15 01:06:14;;;;;;;7.38;2.20;;;2.30;99.90;;;;;;5082243;28;20388;-71
2023/03/15 01:08:41;;;;;;;7.90;2.20;;;2.20;99.90;;;;;;5087487;28;20040;-71
2023/03/15 01:11:10;;;;;;;5.10;2.22;;;2.30;99.90;;;;;;5084939;28;20062;-70
2023/03/15 01:13:36;;;;;;;7.45;2.20;;;2.40;99.90;;;;;;5063281;28;20443;-70
2023/03/15 01:16:03;;;;;;;11.55;3.53;;;2.40;99.90;;;;;;5084526;28;20044;-70
2023/03/15 01:18:28;;;;;;;7.85;2.22;;;2.40;99.90;;;;;;5085643;28;20075;-71
2023/03/15 01:20:54;;;;;;;9.52;2.08;;;2.50;99.90;;;;;;5075138;28;20537;-70
2023/03/15 01:23:20;;;;;;;7.05;2.00;;;2.50;99.90;;;;;;5083261;28;20707;-71
2023/03/15 01:25:45;;;;;;;8.57;2.33;;;2.40;99.90;;;;;;5083583;28;20075;-70
2023/03/15 01:28:11;;;;;;;10.20;2.53;;;2.40;99.90;;;;;;5082929;28;20086;-70
2023/03/15 01:30:37;;;;;;;6.20;2.10;;;2.40;99.90;;;;;;5085101;28;20111;-71
2023/03/15 01:33:02;;;;;;;7.28;2.40;;;2.30;99.90;;;;;;5086876;28;20074;-70
2023/03/15 01:35:28;;;;;;;11.73;2.45;;;2.30;99.90;;;;;;5080096;28;20074;-72
2023/03/15 01:37:54;;;;;;;6.38;2.88;;;2.30;99.90;;;;;;5083130;28;20055;-70
2023/03/15 01:40:19;;;;;;;11.32;2.47;;;2.40;99.90;;;;;;5082897;28;20123;-71
2023/03/15 01:43:03;;;;;;;6.25;2.17;;;2.40;99.90;;;;;;5087534;28;20039;-71
2023/03/15 01:46:00;;;;;;;9.30;2.40;;;2.40;99.90;;;;;;5081905;28;20089;-70
2023/03/15 01:48:31;;;;;;;7.70;2.30;;;2.40;99.90;;;;;;5068666;28;20055;-70
2023/03/15 01:50:59;;;;;;;7.00;2.45;;;2.40;99.90;;;;;;5086760;28;20032;-71
2023/03/15 01:53:27;;;;;;;12.35;2.40;;;2.30;99.90;;;;;;5060602;28;20361;-70
2023/03/15 01:55:53;;;;;;;12.60;2.80;;;2.30;99.90;;;;;;5079804;28;20055;-70
2023/03/15 01:58:22;;;;;;;11.32;3.20;;;2.20;99.90;;;;;;5079849;28;20039;-70
2023/03/15 02:00:48;;;;;;;7.43;2.35;;;2.20;99.90;;;;;;5066537;28;20375;-70
2023/03/15 02:03:20;;;;;;;9.38;2.70;;;2.10;99.90;;;;;;5085589;28;20035;-70
2023/03/15 02:05:53;;;;;;;6.85;2.35;;;2.10;99.90;;;;;;5084692;28;20067;-70
2023/03/15 02:08:21;;;;;;;12.02;2.17;;;2.10;99.90;;;;;;5081393;28;20123;-71
2023/03/15 02:10:53;;;;;;;7.72;2.25;;;2.10;99.90;;;;;;5061147;28;20098;-71
2023/03/15 02:13:22;;;;;;;7.40;2.47;;;2.10;99.90;;;;;;5086761;28;20947;-70
2023/03/15 02:15:48;;;;;;;7.47;2.42;;;2.10;99.90;;;;;;5067749;28;20054;-72
2023/03/15 02:18:15;;;;;;;6.95;2.42;;;2.10;99.90;;;;;;5083528;28;20059;-70
2023/03/15 02:21:22;;;;;;;10.85;2.35;;;2.10;99.90;;;;;;5086447;28;20032;-70
2023/03/15 02:24:03;;;;;;;8.93;2.10;;;2.00;99.90;;;;;;5067636;28;20098;-70
2023/03/15 02:26:32;;;;;;;9.20;2.25;;;2.00;99.90;;;;;;5084911;28;20040;-71
2023/03/15 02:28:58;;;;;;;7.75;2.35;;;2.00;99.90;;;;;;5073638;28;20428;-71
2023/03/15 02:31:24;;;;;;;8.70;2.80;;;2.00;99.90;;;;;;5080835;28;20476;-70
2023/03/15 02:33:54;;;;;;;13.55;2.97;;;1.90;99.90;;;;;;5086842;28;20430;-70
2023/03/15 02:36:27;;;;;;;8.43;2.42;;;1.90;99.90;;;;;;5068317;28;20102;-70
2023/03/15 02:38:54;;;;;;;10.10;2.22;;;1.90;99.90;;;;;;5077864;28;20040;-70
2023/03/15 02:41:37;;;;;;;4.95;2.17;;;1.90;99.90;;;;;;5086140;28;20035;-70
2023/03/15 02:44:10;;;;;;;7.47;2.10;;;1.80;99.90;;;;;;5084055;28;20055;-70
2023/03/15 02:46:37;;;;;;;4.70;1.98;;;1.80;99.90;;;;;;5075065;28;20086;-70
2023/03/15 02:49:03;;;;;;;9.70;2.20;;;1.80;99.90;;;;;;5059275;28;20063;-70
2023/03/15 02:51:32;;;;;;;6.22;2.08;;;1.80;99.90;;;;;;5078259;28;20055;-71
2023/03/15 02:53:57;;;;;;;4.00;2.33;;;1.70;99.90;;;;;;5067119;28;20440;-70
2023/03/15 02:56:23;;;;;;;6.50;2.00;;;1.70;99.90;;;;;;5085130;28;20083;-70
2023/03/15 02:58:49;;;;;;;6.53;2.40;;;1.70;99.90;;;;;;5065292;28;20031;-70
2023/03/15 03:01:15;;;;;;;9.05;2.22;;;1.60;99.90;;;;;;5078402;28;20070;-71
2023/03/15 03:03:43;;;;;;;8.57;2.30;;;1.60;99.90;;;;;;5074893;28;20894;-70
2023/03/15 03:06:10;;;;;;;8.77;2.42;;;1.50;99.90;;;;;;5049866;28;20509;-70
2023/03/15 03:08:36;;;;;;;4.65;2.05;;;1.50;99.90;;;;;;5081933;28;20412;-70
2023/03/15 03:11:02;;;;;;;5.50;2.10;;;1.50;99.90;;;;;;5080615;28;20302;-70
2023/03/15 03:13:28;;;;;;;4.90;2.30;;;1.40;99.90;;;;;;5085807;28;20064;-70
2023/03/15 03:15:57;;;;;;;6.85;2.50;;;1.40;99.90;;;;;;5088668;28;20032;-70
2023/03/15 03:18:28;;;;;;;4.20;2.20;;;1.40;99.90;;;;;;5066304;28;20046;-70
2023/03/15 03:20:58;;;;;;;7.00;2.22;;;1.30;99.90;;;;;;5084326;28;20048;-70
2023/03/15 03:23:24;;;;;;;3.63;2.03;;;1.30;99.90;;;;;;5089485;28;20111;-70
2023/03/15 03:25:54;;;;;;;5.60;2.15;;;1.30;99.90;;;;;;5079957;28;20052;-70
2023/03/15 03:28:23;;;;;;;4.97;1.92;;;1.30;99.90;;;;;;5071250;28;20051;-70
2023/03/15 03:30:49;;;;;;;5.22;2.53;;;1.30;99.90;;;;;;5088603;28;20387;-70
2023/03/15 03:33:14;;;;;;;7.63;2.35;;;1.30;99.90;;;;;;5068277;28;20094;-70
2023/03/15 03:35:40;;;;;;;7.25;2.20;;;1.30;99.90;;;;;;5070178;28;20135;-70
2023/03/15 03:38:07;;;;;;;7.53;2.50;;;1.30;99.90;;;;;;5087292;28;20127;-70
2023/03/15 03:40:32;;;;;;;8.90;2.60;;;1.30;99.90;;;;;;5088094;28;20048;-70
2023/03/15 03:42:58;;;;;;;7.97;2.55;;;1.30;99.90;;;;;;5079907;28;20036;-70
2023/03/15 03:45:24;;;;;;;12.38;3.38;;;1.30;99.90;;;;;;5088294;28;20050;-70
2023/03/15 03:47:50;;;;;;;5.80;2.20;;;1.30;99.90;;;;;;5089896;28;20499;-70
2023/03/15 03:50:16;;;;;;;9.63;2.40;;;1.30;99.90;;;;;;5086739;28;20047;-70
2023/03/15 03:52:42;;;;;;;10.25;2.42;;;1.30;99.90;;;;;;5085524;28;20040;-70
2023/03/15 03:55:12;;;;;;;5.47;2.28;;;1.30;99.90;;;;;;5088450;28;20526;-70
2023/03/15 03:57:38;;;;;;;6.32;2.05;;;1.20;99.90;;;;;;5083612;28;20063;-70
2023/03/15 04:00:04;;;;;;;9.07;2.88;;;1.20;99.90;;;;;;5061575;28;20074;-70
2023/03/15 04:02:30;;;;;;;5.75;2.17;;;1.20;99.90;;;;;;5084831;28;20039;-70
2023/03/15 04:04:56;;;;;;;7.40;2.33;;;1.10;99.90;;;;;;5064886;28;20048;-70
2023/03/15 04:07:21;;;;;;;8.18;2.22;;;1.10;99.90;;;;;;5082179;28;20389;-70
2023/03/15 04:09:47;;;;;;;9.00;2.70;;;1.10;99.90;;;;;;5089730;28;20063;-70
2023/03/15 04:12:13;;;;;;;7.00;2.40;;;1.00;99.90;;;;;;5066387;28;20048;-70
2023/03/15 04:14:38;;;;;;;8.43;2.65;;;1.10;99.90;;;;;;5066822;28;20048;-70
2023/03/15 04:17:04;;;;;;;5.82;2.28;;;1.10;99.90;;;;;;5062318;28;20040;-70
2023/03/15 04:19:30;;;;;;;7.32;2.03;;;1.10;99.90;;;;;;5053291;28;20122;-70
2023/03/15 04:21:55;;;;;;;5.50;2.25;;;1.10;99.90;;;;;;5086855;28;20492;-70
2023/03/15 04:24:21;;;;;;;7.28;2.30;;;1.00;99.90;;;;;;5081943;28;20052;-70
2023/03/15 04:26:47;;;;;;;4.43;2.10;;;1.00;99.90;;;;;;5088952;28;20036;-70
2023/03/15 04:29:14;;;;;;;8.77;2.40;;;1.00;99.90;;;;;;5067618;28;20043;-71
2023/03/15 04:31:41;;;;;;;7.35;2.30;;;0.90;99.90;;;;;;5083258;28;20050;-70
2023/03/15 04:34:08;;;;;;;6.85;1.90;;;0.90;99.90;;;;;;5073510;28;20610;-70
2023/03/15 04:36:34;;;;;;;6.68;2.28;;;0.80;99.90;;;;;;5088792;28;20066;-70
2023/03/15 04:39:06;;;;;;;9.25;2.40;;;0.80;99.90;;;;;;5084605;28;20036;-70
2023/03/15 04:41:35;;;;;;;6.65;2.20;;;0.80;99.90;;;;;;5053703;28;20597;-70
2023/03/15 04:44:04;;;;;;;5.53;2.50;;;0.70;99.90;;;;;;5081228;28;20127;-70
2023/03/15 04:46:33;;;;;;;8.77;2.58;;;0.70;99.90;;;;;;5087485;28;20040;-70
2023/03/15 04:48:59;;;;;;;7.90;2.38;;;0.60;99.90;;;;;;5066801;28;20047;-70
2023/03/15 04:51:25;;;;;;;6.68;2.50;;;0.60;99.90;;;;;;5077072;28;20051;-70
2023/03/15 04:53:51;;;;;;;6.30;2.40;;;0.60;99.90;;;;;;5082547;28;20662;-70
2023/03/15 04:56:16;;;;;;;12.95;2.92;;;0.50;99.90;;;;;;5087441;28;20065;-71
2023/03/15 04:58:42;;;;;;;11.63;2.70;;;0.50;99.90;;;;;;5065717;28;20044;-70
2023/03/15 05:01:07;;;;;;;13.68;2.45;;;0.40;99.90;;;;;;5067208;28;20499;-70
2023/03/15 05:03:33;;;;;;;6.20;2.40;;;0.40;99.90;;;;;;5086111;28;20032;-70
2023/03/15 05:06:06;;;;;;;7.93;2.40;;;0.40;99.90;;;;;;5057954;28;20044;-71
2023/03/15 05:08:34;;;;;;;5.10;2.10;;;0.40;99.90;;;;;;5067921;28;20553;-70
2023/03/15 05:11:00;;;;;;;7.88;2.20;;;0.40;99.90;;;;;;5051232;28;20076;-70
2023/03/15 05:13:25;;;;;;;7.03;2.20;;;0.40;99.90;;;;;;5059273;28;20136;-70
2023/03/15 05:15:51;;;;;;;7.95;2.40;;;0.30;99.90;;;;;;5083400;28;20039;-70
2023/03/15 05:18:17;;;;;;;5.15;2.20;;;0.30;99.90;;;;;;5069488;28;20044;-71
2023/03/15 05:20:42;;;;;;;5.93;2.50;;;0.20;99.90;;;;;;5085555;28;20042;-70
2023/03/15 05:23:08;;;;;;;6.78;2.35;;;0.10;99.90;;;;;;5042777;28;20047;-70
2023/03/15 05:25:35;;;;;;;9.65;2.53;;;0.00;99.90;;;;;;5065623;28;20066;-70
2023/03/15 05:28:03;;;;;;;7.50;2.50;;;0.00;99.90;;;;;;5085179;28;20078;-70
2023/03/15 05:30:29;;;;;;;13.25;2.78;;;0.10;99.90;;;;;;5052585;28;20086;-70
2023/03/15 05:32:55;;;;;;;9.63;2.72;;;0.30;99.90;;;;;;5086329;28;20040;-70
2023/03/15 05:35:25;;;;;;;6.80;2.88;;;0.40;99.90;;;;;;5085163;28;20047;-70
2023/03/15 05:38:00;;;;;;;8.68;3.20;;;0.50;99.90;;;;;;5067528;28;20110;-70
2023/03/15 05:40:28;;;;;;;9.57;2.65;;;0.50;99.90;;;;;;5059191;28;20055;-71
2023/03/15 05:42:55;;;;;;;9.65;2.85;;;0.50;99.90;;;;;;5080672;28;20047;-70
2023/03/15 05:45:21;;;;;;;7.20;2.50;;;0.50;99.90;;;;;;5066235;28;20036;-70
2023/03/15 05:47:46;;;;;;;11.20;3.00;;;0.60;99.90;;;;;;5064895;28;20040;-70
2023/03/15 05:50:12;;;;;;;10.07;2.85;;;0.60;99.90;;;;;;5068365;28;20632;-70
2023/03/15 05:52:37;;;;;;;8.73;2.72;;;0.70;99.90;;;;;;5086033;28;20039;-70
2023/03/15 05:55:03;;;;;;;11.93;3.58;;;0.70;99.90;;;;;;5077467;28;20040;-69
2023/03/15 05:57:30;;;;;;;7.05;2.92;;;0.70;99.90;;;;;;5058883;28;20035;-70
2023/03/15 05:59:56;;;;;;;11.23;2.50;;;0.80;99.90;;;;;;5058935;28;20451;-70
2023/03/15 06:02:22;;;;;;;9.93;2.45;;;0.70;99.90;;;;;;5066692;28;20048;-70
2023/03/15 06:04:47;;;;;;;6.85;2.30;;;0.80;99.90;;;;;;5085037;28;20583;-70
2023/03/15 06:07:13;;;;;;;9.90;3.00;;;0.80;99.90;;;;;;5081405;28;20083;-71
2023/03/15 06:09:38;;;;;;;4.28;2.05;;;0.80;99.90;;;;;;5078372;28;20560;-70
2023/03/15 06:12:04;;;;;;;7.55;2.38;;;0.80;99.90;;;;;;5057777;28;20044;-70
2023/03/15 06:14:30;;;;;;;7.25;2.10;;;0.80;99.90;;;;;;5072776;28;20040;-70
2023/03/15 06:16:56;;;;;;;8.02;2.10;;;0.70;99.90;;;;;;5078901;28;20118;-71
2023/03/15 06:19:22;;;;;;;5.50;2.10;;;0.70;99.90;;;;;;5084815;28;20126;-70
2023/03/15 06:21:47;;;;;;;13.68;2.88;;;0.70;99.90;;;;;;5086846;28;20039;-71
2023/03/15 06:24:13;;;;;;;6.32;2.65;;;0.70;99.90;;;;;;5085102;28;20047;-70
2023/03/15 06:26:39;;;;;;;8.93;2.67;;;0.60;99.90;;;;;;5086224;28;20101;-71
2023/03/15 06:29:05;;;;;;;7.93;2.50;;;0.60;99.90;;;;;;5083542;28;20502;-71
2023/03/15 06:31:31;;;;;;;4.30;2.40;;;0.60;99.90;;;;;;5057862;28;20045;-71
2023/03/15 06:33:56;;;;;;;10.10;2.50;;;0.60;99.90;;;;;;5084052;28;20036;-70
2023/03/15 06:36:23;;;;;;;8.10;2.70;;;0.60;99.90;;;;;;5076899;28;20533;-71
2023/03/15 06:38:49;;;;;;;5.57;2.22;;;0.60;99.90;;;;;;5084901;28;20050;-70
2023/03/15 06:41:15;;;;;;;8.27;2.45;;;0.60;99.90;;;;;;5078822;28;20048;-71
2023/03/15 06:43:41;;;;;;;11.50;2.90;;;0.60;99.90;;;;;;5063843;28;20048;-70
2023/03/15 06:46:06;;;;;;;6.13;2.92;;;0.60;99.90;;;;;;5045015;28;20055;-70
2023/03/15 06:48:32;;;;;;;11.43;2.70;;;0.70;99.90;;;;;;5079989;28;20040;-70
2023/03/15 06:50:58;;;;;;;9.13;2.53;;;0.70;99.90;;;;;;5082457;28;20059;-71
2023/03/15 06:53:24;;;;;;;9.00;2.47;;;0.80;99.90;;;;;;5084138;28;20039;-70
2023/03/15 06:55:50;;;;;;;7.07;2.17;;;0.90;99.90;;;;;;5063232;28;20040;-70
2023/03/15 06:58:16;;;;;;;9.50;2.60;;;1.00;99.90;;;;;;5058992;28;20044;-71
2023/03/15 07:00:43;;;;;;;8.90;2.67;;;1.10;99.90;;;;;;5082216;28;20044;-71
2023/03/15 07:03:09;;;;;;;7.25;3.45;;;1.20;99.90;;;;;;5066683;28;20064;-70
2023/03/15 07:05:34;;;;;;;10.23;2.40;;;1.30;99.90;;;;;;5085607;28;20080;-70
2023/03/15 07:08:00;;;;;;;6.30;2.75;;;1.30;99.90;;;;;;5049848;28;20622;-70
2023/03/15 07:10:26;;;;;;;12.35;2.60;;;1.50;99.90;;;;;;5082881;28;20033;-71
2023/03/15 07:12:51;;;;;;;9.35;3.83;;;1.60;99.90;;;;;;5085888;28;20488;-70
2023/03/15 07:15:17;;;;;;;7.18;2.67;;;1.80;99.90;;;;;;5073539;28;20101;-71
2023/03/15 07:17:42;;;;;;;7.93;2.60;;;2.00;99.90;;;;;;5064988;28;20038;-70
2023/03/15 07:20:10;;;;;;;5.07;2.38;;;2.00;99.90;;;;;;5066830;28;20028;-70
2023/03/15 07:22:36;;;;;;;7.00;2.70;;;2.10;99.90;;;;;;5066834;28;20051;-71
2023/03/15 07:25:01;;;;;;;7.60;2.70;;;2.20;99.90;;;;;;5067571;28;20063;-71
2023/03/15 07:27:28;;;;;;;9.65;3.15;;;2.40;99.90;;;;;;5065532;28;20048;-70
2023/03/15 07:29:54;;;;;;;8.85;2.90;;;2.50;99.90;;;;;;5064310;28;20429;-70
2023/03/15 07:32:20;;;;;;;12.23;2.58;;;2.70;99.90;;;;;;5056826;28;20262;-71
2023/03/15 07:34:45;;;;;;;8.98;2.97;;;2.70;99.90;;;;;;5044044;28;20048;-70
2023/03/15 07:37:11;;;;;;;6.65;2.50;;;2.70;99.90;;;;;;5086230;28;20047;-71
2023/03/15 07:39:36;;;;;;;8.45;3.00;;;2.80;99.90;;;;;;5049142;28;20250;-71
2023/03/15 07:42:03;;;;;;;7.95;2.58;;;3.10;99.90;;;;;;5085476;28;20043;-70
2023/03/15 07:44:28;;;;;;;13.95;3.00;;;3.30;99.90;;;;;;5084797;28;20044;-70
2023/03/15 07:46:54;;;;;;;9.27;3.90;;;3.30;99.90;;;;;;5084478;28;20047;-70
2023/03/15 07:49:20;;;;;;;10.18;2.97;;;3.30;99.90;;;;;;5066183;28;20040;-70
2023/03/15 07:51:46;;;;;;;10.23;2.80;;;3.20;99.90;;;;;;5078056;28;20882;-71
2023/03/15 07:54:11;;;;;;;8.52;3.00;;;3.30;99.90;;;;;;5085899;28;20123;-71
2023/03/15 07:56:37;;;;;;;11.50;2.70;;;3.40;99.90;;;;;;5088760;28;20036;-71
2023/03/15 07:59:02;;;;;;;11.75;2.92;;;3.40;99.90;;;;;;5064947;28;20350;-71
2023/03/15 08:01:28;;;;;;;10.15;3.20;;;3.50;99.90;;;;;;5088759;28;20047;-71
2023/03/15 08:03:53;;;;;;;9.63;2.78;;;3.60;99.90;;;;;;5087071;28;20039;-71
2023/03/15 08:06:19;;;;;;;11.48;3.17;;;3.70;99.90;;;;;;5089265;28;20162;-71
2023/03/15 08:08:45;;;;;;;13.13;3.03;;;3.80;99.90;;;;;;5073656;28;20047;-71
2023/03/15 08:11:11;;;;;;;11.98;2.97;;;3.90;99.90;;;;;;5090421;28;20039;-71
2023/03/15 08:13:37;;;;;;;11.68;3.17;;;3.90;99.90;;;;;;5083407;28;20036;-71
2023/03/15 08:16:02;;;;;;;11.70;2.70;;;4.00;99.90;;;;;;5082754;28;20040;-71
2023/03/15 08:18:28;;;;;;;8.30;2.58;;;4.10;99.90;;;;;;5069120;28;20403;-71
2023/03/15 08:20:54;;;;;;;12.88;2.60;;;4.20;99.90;;;;;;5067009;28;20484;-71
2023/03/15 08:23:20;;;;;;;7.20;2.50;;;4.30;99.90;;;;;;5089521;28;20391;-71
2023/03/15 08:25:46;;;;;;;7.78;2.22;;;4.40;99.90;;;;;;5079279;28;20047;-71
2023/03/15 08:28:13;;;;;;;9.48;2.50;;;4.50;99.90;;;;;;5061688;28;20056;-71
2023/03/15 08:30:39;;;;;;;12.20;3.03;;;4.60;99.90;;;;;;5068838;28;20043;-72
2023/03/15 08:33:06;;;;;;;6.00;2.15;;;4.70;99.90;;;;;;5087778;28;20025;-71
2023/03/15 08:35:33;;;;;;;9.68;2.78;;;4.80;99.90;;;;;;5087540;28;20027;-71
2023/03/15 08:38:01;;;;;;;4.30;2.10;;;4.90;99.90;;;;;;5070011;28;20047;-71
2023/03/15 08:40:28;;;;;;;7.25;2.55;;;5.00;99.90;;;;;;5089177;28;20063;-71
2023/03/15 08:42:57;;;;;;;9.05;2.40;;;5.30;99.90;;;;;;5088211;28;20036;-72
2023/03/15 08:45:23;;;;;;;4.30;1.95;;;5.60;99.90;;;;;;5080632;28;20438;-71
2023/03/15 08:47:54;;;;;;;5.65;2.35;;;5.90;99.90;;;;;;5070838;28;20024;-72
2023/03/15 08:50:20;;;;;;;6.20;2.38;;;6.10;99.90;;;;;;5086998;28;20048;-71
2023/03/15 08:52:45;;;;;;;8.15;2.30;;;6.10;99.90;;;;;;5089643;28;20096;-71
2023/03/15 08:55:13;;;;;;;4.47;2.03;;;6.10;99.90;;;;;;5087781;28;20453;-71
2023/03/15 08:57:39;;;;;;;9.95;2.17;;;6.10;99.90;;;;;;5069136;28;20086;-71
2023/03/15 09:00:07;;;;;;;4.22;1.90;;;6.50;99.90;;;;;;5063869;28;20956;-71
2023/03/15 09:02:33;;;;;;;4.35;2.10;;;6.90;99.90;;;;;;5045924;28;20043;-71
2023/03/15 09:04:59;;;;;;;10.95;2.40;;;7.10;99.90;;;;;;5066835;28;20155;-71
2023/03/15 09:07:25;;;;;;;6.45;2.45;;;7.40;99.90;;;;;;5083933;28;20488;-72
2023/03/15 09:09:53;;;;;;;10.05;2.72;;;7.60;99.90;;;;;;5087673;28;20111;-71
2023/03/15 09:12:19;;;;;;;6.28;2.65;;;7.80;99.90;;;;;;5068927;28;20032;-71
2023/03/15 09:14:45;;;;;;;6.45;2.17;;;8.00;99.90;;;;;;5088207;28;20040;-71
2023/03/15 09:17:11;;;;;;;6.20;1.90;;;8.20;99.90;;;;;;5086780;28;20106;-71
2023/03/15 09:19:37;;;;;;;10.93;2.40;;;8.30;99.90;;;;;;5068062;28;20051;-72
2023/03/15 09:22:02;;;;;;;7.38;2.30;;;8.20;99.90;;;;;;5086115;28;21004;-71
2023/03/15 09:24:28;;;;;;;9.05;2.38;;;8.20;99.90;;;;;;5077497;28;20088;-71
2023/03/15 09:26:53;;;;;;;8.65;2.08;;;8.20;99.90;;;;;;5064018;28;20051;-72
2023/03/15 09:29:19;;;;;;;6.03;2.20;;;8.20;99.90;;;;;;5066530;28;20036;-72
2023/03/15 09:31:45;;;;;;;7.28;2.05;;;8.10;99.90;;;;;;5065639;28;20039;-72
2023/03/15 09:34:11;;;;;;;6.45;2.00;;;8.10;99.90;;;;;;5066536;28;20047;-72
2023/03/15 09:36:37;;;;;;;2.65;1.73;;;7.90;99.90;;;;;;5047228;28;20059;-72
2023/03/15 09:39:03;;;;;;;7.97;1.83;;;7.80;99.90;;;;;;5065112;28;20040;-72
2023/03/15 09:41:41;;;;;;;5.78;2.15;;;7.80;99.90;;;;;;5067189;28;20040;-72
2023/03/15 09:44:26;;;;;;;6.28;2.00;;;7.80;99.90;;;;;;5066821;28;20104;-72
2023/03/15 09:47:07;;;;;;;8.05;2.50;;;7.70;99.90;;;;;;5049275;28;20610;-72
2023/03/15 09:49:41;;;;;;;7.43;2.17;;;7.70;99.90;;;;;;5066374;28;20067;-72
2023/03/15 09:52:37;;;;;;;6.80;2.10;;;7.70;99.90;;;;;;5048491;28;20167;-71
2023/03/15 09:55:15;;;;;;;8.75;2.30;;;7.70;99.90;;;;;;5041999;28;20154;-71
2023/03/15 09:57:47;;;;;;;6.03;2.10;;;7.80;99.90;;;;;;5065721;28;20162;-71
2023/03/15 10:00:19;;;;;;;7.57;1.95;;;7.90;99.90;;;;;;5048836;28;20143;-71
2023/03/15 10:02:55;;;;;;;7.03;2.00;;;7.90;99.90;;;;;;5050912;28;20040;-71
2023/03/15 10:05:26;;;;;;;8.75;1.90;;;7.90;99.90;;;;;;5046305;28;20481;-71
2023/03/15 10:07:52;;;;;;;5.88;2.45;;;7.80;99.80;;;;;;5066413;28;20115;-72
2023/03/15 10:10:22;;;;;;;7.85;2.13;;;7.90;99.90;;;;;;5067845;28;20123;-71
2023/03/15 10:13:22;;;;;;;6.38;2.10;;;8.10;99.90;;;;;;5061752;28;20035;-72
2023/03/15 10:16:12;;;;;;;6.05;2.03;;;8.40;99.90;;;;;;5049088;28;20055;-71
2023/03/15 10:18:38;;;;;;;7.40;2.20;;;8.40;99.90;;;;;;5064172;28;20076;-71
2023/03/15 10:21:10;;;;;;;9.77;2.20;;;8.40;99.90;;;;;;5058850;28;20068;-71
2023/03/15 10:23:47;;;;;;;7.40;2.20;;;8.50;99.90;;;;;;5066735;28;20044;-71
2023/03/15 10:26:17;;;;;;;7.85;2.10;;;8.50;99.90;;;;;;5084839;28;20492;-71
2023/03/15 10:28:44;;;;;;;5.03;1.80;;;8.70;99.90;;;;;;5083737;28;20118;-71
2023/03/15 10:31:17;;;;;;;3.85;2.00;;;8.90;99.90;;;;;;5077749;28;20043;-71
2023/03/15 10:33:44;;;;;;;4.67;1.73;;;8.80;98.80;;;;;;5079591;28;20041;-71
2023/03/15 10:36:22;;;;;;;7.97;2.65;;;8.50;98.90;;;;;;5048684;28;20056;-71
2023/03/15 10:38:49;;;;;;;5.13;1.63;;;8.40;99.90;;;;;;5079644;28;20078;-71
2023/03/15 10:41:44;;;;;;;7.32;2.10;;;8.40;99.90;;;;;;5078246;28;20048;-71
2023/03/15 10:44:19;;;;;;;5.72;2.03;;;8.30;99.90;;;;;;5066770;28;20036;-71
2023/03/15 10:47:16;;;;;;;9.65;2.13;;;8.30;99.70;;;;;;5050761;28;20492;-71
2023/03/15 10:49:43;;;;;;;7.25;2.08;;;8.10;99.00;;;;;;5084360;28;20194;-71
2023/03/15 10:52:37;;;;;;;8.77;2.25;;;8.20;99.90;;;;;;5065141;28;20035;-71
2023/03/15 10:55:17;;;;;;;7.63;2.10;;;8.30;99.70;;;;;;5061112;28;20051;-71
2023/03/15 10:57:54;;;;;;;6.80;2.20;;;8.60;99.00;;;;;;5082552;28;20032;-72
2023/03/15 11:00:35;;;;;;;9.38;1.90;;;8.80;98.60;;;;;;5074118;28;20403;-71
2023/03/15 11:03:16;;;;;;;9.68;2.00;;;8.90;99.20;;;;;;5082235;28;20565;-71
2023/03/15 11:05:45;;;;;;;7.72;2.20;;;9.20;98.80;;;;;;5065567;28;20048;-72
2023/03/15 11:08:14;;;;;;;7.78;2.38;;;9.30;97.60;;;;;;5078072;28;20491;-71
2023/03/15 11:10:40;;;;;;;9.15;2.15;;;9.10;97.90;;;;;;5066397;28;20043;-72
2023/03/15 11:13:16;;;;;;;10.32;2.35;;;8.70;98.50;;;;;;5061211;28;20048;-71
2023/03/15 11:15:53;;;;;;;8.18;2.17;;;8.50;99.10;;;;;;5079886;28;20043;-72
2023/03/15 11:18:26;;;;;;;8.27;2.30;;;8.60;99.90;;;;;;5084942;28;20161;-71
2023/03/15 11:20:55;;;;;;;7.75;2.03;;;8.90;99.90;;;;;;5079665;28;20073;-71
2023/03/15 11:23:28;;;;;;;9.48;2.03;;;9.10;99.90;;;;;;5066288;28;20115;-70
2023/03/15 11:25:55;;;;;;;8.27;2.05;;;9.20;99.90;;;;;;5062604;28;20052;-71
2023/03/15 11:28:34;;;;;;;8.18;2.00;;;9.40;99.70;;;;;;5063482;28;20080;-72
2023/03/15 11:31:00;;;;;;;7.07;2.15;;;9.60;99.30;;;;;;5085850;28;20070;-71
2023/03/15 11:33:56;;;;;;;5.97;1.90;;;9.70;97.60;;;;;;5087041;28;20121;-71
2023/03/15 11:36:25;;;;;;;8.07;2.20;;;9.80;98.80;;;;;;5067297;28;20078;-72
2023/03/15 11:38:53;;;;;;;5.47;1.80;;;10.10;97.60;;;;;;5087168;28;20055;-71
2023/03/15 11:41:36;;;;;;;11.30;2.65;;;10.10;97.20;;;;;;5086083;28;20031;-71
2023/03/15 11:44:23;;;;;;;5.55;1.88;;;10.10;95.50;;;;;;5080404;28;20047;-72
2023/03/15 11:47:02;;;;;;;6.07;2.22;;;9.90;95.10;;;;;;5065550;28;20059;-71
2023/03/15 11:49:43;;;;;;;5.25;1.60;;;9.80;96.40;;;;;;5081432;28;20044;-71
2023/03/15 11:52:09;;;;;;;4.90;2.05;;;9.90;95.20;;;;;;5081182;28;20488;-71
2023/03/15 11:54:35;;;;;;;5.88;1.90;;;10.00;96.20;;;;;;5085904;28;20043;-71
2023/03/15 11:57:25;;;;;;;8.07;2.03;;;10.10;96.40;;;;;;5085780;28;20893;-72
2023/03/15 11:59:51;;;;;;;6.72;2.10;;;10.20;94.60;;;;;;5083855;28;20047;-71
2023/03/15 12:02:17;;;;;;;6.93;1.85;;;10.20;93.90;;;;;;5067568;28;20075;-71
2023/03/15 12:04:48;;;;;;;6.38;1.83;;;10.10;95.10;;;;;;5062906;28;20575;-71
2023/03/15 12:07:16;;;;;;;5.85;1.80;;;10.10;94.50;;;;;;5083389;28;20047;-71
2023/03/15 12:09:54;;;;;;;7.45;1.90;;;10.10;93.70;;;;;;5086479;28;20051;-72
2023/03/15 12:12:23;;;;;;;9.00;1.80;;;10.10;94.70;;;;;;5062396;28;20075;-71
2023/03/15 12:15:21;;;;;;;6.85;2.00;;;10.30;95.20;;;;;;5083173;28;20043;-71
2023/03/15 12:17:52;;;;;;;9.27;2.20;;;10.40;94.50;;;;;;5017576;28;20105;-72
2023/03/15 12:20:36;;;;;;;4.57;1.60;;;10.20;93.80;;;;;;5085103;28;20486;-71
2023/03/15 12:23:11;;;;;;;7.53;2.20;;;10.00;94.40;;;;;;5083873;28;20036;-72
2023/03/15 12:25:56;;;;;;;6.22;2.00;;;9.90;95.10;;;;;;5086723;28;20056;-72
2023/03/15 12:28:30;;;;;;;4.57;1.75;;;10.00;94.10;;;;;;5086718;28;20076;-71
2023/03/15 12:31:00;;;;;;;8.18;1.70;;;10.10;93.90;;;;;;5066937;28;20044;-71
2023/03/15 12:33:29;;;;;;;4.28;1.88;;;10.00;93.30;;;;;;5085948;28;20043;-72
2023/03/15 12:36:34;;;;;;;6.35;1.65;;;9.90;93.60;;;;;;5069877;28;20438;-71
2023/03/15 12:39:33;;;;;;;5.07;1.80;;;9.90;92.30;;;;;;5087324;28;20089;-71
2023/03/15 12:41:59;;;;;;;6.65;1.90;;;9.90;91.40;;;;;;5085338;28;20158;-71
2023/03/15 12:44:30;;;;;;;6.50;1.67;;;9.80;92.50;;;;;;5085680;28;20106;-71
2023/03/15 12:47:04;;;;;;;6.88;1.80;;;9.60;92.00;;;;;;5088226;28;20071;-72
2023/03/15 12:49:34;;;;;;;8.95;2.20;;;9.50;92.00;;;;;;5082860;28;20032;-71
2023/03/15 12:52:01;;;;;;;6.00;1.90;;;9.40;92.80;;;;;;5049662;28;20039;-71
2023/03/15 12:54:36;;;;;;;7.13;2.13;;;9.40;92.80;;;;;;5084573;28;20135;-71
2023/03/15 12:57:04;;;;;;;8.18;1.98;;;9.40;93.40;;;;;;5082224;28;20114;-72
2023/03/15 12:59:31;;;;;;;6.30;2.00;;;9.60;93.00;;;;;;5086335;28;20470;-71
2023/03/15 13:01:59;;;;;;;7.22;2.25;;;9.70;92.70;;;;;;5086277;28;20040;-72
2023/03/15 13:04:27;;;;;;;6.32;2.05;;;9.80;93.20;;;;;;5050312;28;20039;-71